Aktuell METAR/TAF ESNU/UME

120920Z 20010KT 9999 SCT027 BKN044 17/12 Q1021=

AMD 120858Z 1209/1218 18004KT CAVOK PROB40 1209/1216 SHRA BKN040CB=
Källa: Luftfartsverket (aro.lfv.se)